New River MCAS, H, Mccutcheon Fld, Airport Jacksonville US
ICAO: KNCA
IATA: NCA
Category: Medium
Scheduled Services: No

Elevation: 26 ft
TransAlt. 18000 ft.

Airport Communications:
CHERRY POINT APP/DEP:119.35
ARRIVAL:124.85
ATIS:28.832
CLNC DEL:23.902
GND:121.8
OPS:23.64
PMSV METRO:24.477
TWR:120

KNCA Zoom In..

If you have problems with the map follow the link
https://www.worldairports.se/pages/airport.php?
ICAO=KNCA

Runways:

(A) RW 01 length 4790 ft width 150 ft
ILS 111.10 / hdg 8

(B) RW 05 length 5114 ft width 150 ft
---- / hdg 53

(C) RW 19 length 4790 ft width 150 ft
---- / hdg 188

(D) RW 23 length 5114 ft width 150 ft
---- / hdg 233

Location; KNCA
Day. 21 / Time. 20.56 Zulu
* Altimeter: 30.31
* Temperature: 04° c. 39.2°f.
* Wind from: 350° Speed 18 kn with Gusts up to 24 kn.
Dewpoint: -09° c.
Visibility: 10 Statute Miles.
Clouds: Clear (automated report).

KNCA 212056Z AUTO 35018G24KT 10SM CLR 04/M09 A3031 RMK AO2 PK WND 36026/2018 SLP266 T00391089 55009 $


Wind From 350°
Speed 18 kn.

 
 
jpsmedia worldairports.se 2020   terms of use